sensor_id;sensor_type;location;lat;lon;timestamp;P1;durP1;ratioP1;P2;durP2;ratioP2
11042;SDS011;5574;48.786;10.120;2024-03-07T00:02:07;18.83;;;15.20;;
11042;SDS011;5574;48.786;10.120;2024-03-07T00:04:36;20.17;;;16.97;;
11042;SDS011;5574;48.786;10.120;2024-03-07T00:07:02;21.63;;;16.37;;
11042;SDS011;5574;48.786;10.120;2024-03-07T00:09:31;19.30;;;16.07;;
11042;SDS011;5574;48.786;10.120;2024-03-07T00:11:57;20.27;;;16.83;;
11042;SDS011;5574;48.786;10.120;2024-03-07T00:14:24;20.90;;;17.23;;
11042;SDS011;5574;48.786;10.120;2024-03-07T00:16:52;19.07;;;16.00;;
11042;SDS011;5574;48.786;10.120;2024-03-07T00:19:18;21.20;;;16.90;;
11042;SDS011;5574;48.786;10.120;2024-03-07T00:21:47;26.37;;;19.20;;
11042;SDS011;5574;48.786;10.120;2024-03-07T00:24:14;21.93;;;18.37;;
11042;SDS011;5574;48.786;10.120;2024-03-07T00:26:41;23.37;;;18.60;;
11042;SDS011;5574;48.786;10.120;2024-03-07T00:29:07;23.40;;;18.40;;
11042;SDS011;5574;48.786;10.120;2024-03-07T00:31:34;22.97;;;18.53;;
11042;SDS011;5574;48.786;10.120;2024-03-07T00:34:01;22.60;;;17.87;;
11042;SDS011;5574;48.786;10.120;2024-03-07T00:36:27;22.73;;;18.50;;
11042;SDS011;5574;48.786;10.120;2024-03-07T00:38:55;23.63;;;18.00;;
11042;SDS011;5574;48.786;10.120;2024-03-07T00:41:22;25.07;;;18.33;;
11042;SDS011;5574;48.786;10.120;2024-03-07T00:43:49;21.37;;;17.77;;
11042;SDS011;5574;48.786;10.120;2024-03-07T00:46:16;19.80;;;17.10;;
11042;SDS011;5574;48.786;10.120;2024-03-07T00:48:43;20.90;;;17.40;;
11042;SDS011;5574;48.786;10.120;2024-03-07T00:51:10;19.53;;;17.23;;
11042;SDS011;5574;48.786;10.120;2024-03-07T00:53:37;20.47;;;17.00;;
11042;SDS011;5574;48.786;10.120;2024-03-07T00:56:05;18.87;;;16.80;;
11042;SDS011;5574;48.786;10.120;2024-03-07T00:58:31;20.30;;;17.03;;
11042;SDS011;5574;48.786;10.120;2024-03-07T01:00:59;20.63;;;17.70;;
11042;SDS011;5574;48.786;10.120;2024-03-07T01:03:26;19.77;;;17.30;;
11042;SDS011;5574;48.786;10.120;2024-03-07T01:05:53;19.63;;;17.20;;
11042;SDS011;5574;48.786;10.120;2024-03-07T01:08:19;21.43;;;17.37;;
11042;SDS011;5574;48.786;10.120;2024-03-07T01:10:46;20.50;;;17.70;;
11042;SDS011;5574;48.786;10.120;2024-03-07T01:13:15;22.80;;;17.13;;
11042;SDS011;5574;48.786;10.120;2024-03-07T01:15:44;20.83;;;17.67;;
11042;SDS011;5574;48.786;10.120;2024-03-07T01:18:11;22.33;;;17.80;;
11042;SDS011;5574;48.786;10.120;2024-03-07T01:20:37;21.30;;;18.33;;
11042;SDS011;5574;48.786;10.120;2024-03-07T01:23:04;21.70;;;17.83;;
11042;SDS011;5574;48.786;10.120;2024-03-07T01:25:32;21.17;;;17.20;;
11042;SDS011;5574;48.786;10.120;2024-03-07T01:27:59;21.07;;;17.00;;
11042;SDS011;5574;48.786;10.120;2024-03-07T01:30:27;20.37;;;17.33;;
11042;SDS011;5574;48.786;10.120;2024-03-07T01:32:54;22.20;;;17.43;;
11042;SDS011;5574;48.786;10.120;2024-03-07T01:35:21;20.67;;;17.60;;
11042;SDS011;5574;48.786;10.120;2024-03-07T01:37:47;22.00;;;18.13;;
11042;SDS011;5574;48.786;10.120;2024-03-07T01:40:14;24.10;;;18.97;;
11042;SDS011;5574;48.786;10.120;2024-03-07T01:42:41;22.33;;;17.67;;
11042;SDS011;5574;48.786;10.120;2024-03-07T01:45:08;21.43;;;18.33;;
11042;SDS011;5574;48.786;10.120;2024-03-07T01:47:36;20.53;;;17.70;;
11042;SDS011;5574;48.786;10.120;2024-03-07T01:50:03;19.60;;;17.23;;
11042;SDS011;5574;48.786;10.120;2024-03-07T01:52:31;20.00;;;16.93;;
11042;SDS011;5574;48.786;10.120;2024-03-07T01:54:58;23.80;;;18.83;;
11042;SDS011;5574;48.786;10.120;2024-03-07T01:57:24;23.87;;;17.53;;
11042;SDS011;5574;48.786;10.120;2024-03-07T01:59:51;24.60;;;17.63;;
11042;SDS011;5574;48.786;10.120;2024-03-07T02:02:18;22.03;;;18.60;;
11042;SDS011;5574;48.786;10.120;2024-03-07T02:04:46;22.87;;;17.77;;
11042;SDS011;5574;48.786;10.120;2024-03-07T02:07:13;23.03;;;18.17;;
11042;SDS011;5574;48.786;10.120;2024-03-07T02:09:40;23.60;;;19.03;;
11042;SDS011;5574;48.786;10.120;2024-03-07T02:12:06;25.37;;;19.40;;
11042;SDS011;5574;48.786;10.120;2024-03-07T02:14:33;21.90;;;18.00;;
11042;SDS011;5574;48.786;10.120;2024-03-07T02:17:00;20.90;;;17.70;;
11042;SDS011;5574;48.786;10.120;2024-03-07T02:19:27;21.53;;;17.50;;
11042;SDS011;5574;48.786;10.120;2024-03-07T02:21:55;20.47;;;17.03;;
11042;SDS011;5574;48.786;10.120;2024-03-07T02:24:22;20.67;;;17.77;;
11042;SDS011;5574;48.786;10.120;2024-03-07T02:26:48;21.23;;;17.40;;
11042;SDS011;5574;48.786;10.120;2024-03-07T02:29:15;21.00;;;17.57;;
11042;SDS011;5574;48.786;10.120;2024-03-07T02:31:44;20.60;;;18.20;;
11042;SDS011;5574;48.786;10.120;2024-03-07T02:34:11;21.87;;;18.00;;
11042;SDS011;5574;48.786;10.120;2024-03-07T02:36:38;22.30;;;18.60;;
11042;SDS011;5574;48.786;10.120;2024-03-07T02:39:06;22.60;;;18.13;;
11042;SDS011;5574;48.786;10.120;2024-03-07T02:41:33;21.53;;;17.93;;
11042;SDS011;5574;48.786;10.120;2024-03-07T02:44:00;25.00;;;18.63;;
11042;SDS011;5574;48.786;10.120;2024-03-07T02:46:28;21.07;;;17.13;;
11042;SDS011;5574;48.786;10.120;2024-03-07T02:48:57;22.93;;;17.67;;
11042;SDS011;5574;48.786;10.120;2024-03-07T02:51:24;22.97;;;17.97;;
11042;SDS011;5574;48.786;10.120;2024-03-07T02:53:50;20.77;;;17.70;;
11042;SDS011;5574;48.786;10.120;2024-03-07T02:56:18;20.80;;;17.67;;
11042;SDS011;5574;48.786;10.120;2024-03-07T02:58:45;23.20;;;18.80;;
11042;SDS011;5574;48.786;10.120;2024-03-07T03:01:12;23.63;;;18.57;;
11042;SDS011;5574;48.786;10.120;2024-03-07T03:03:38;22.10;;;17.50;;
11042;SDS011;5574;48.786;10.120;2024-03-07T03:06:07;22.37;;;18.23;;
11042;SDS011;5574;48.786;10.120;2024-03-07T03:08:34;22.60;;;17.53;;
11042;SDS011;5574;48.786;10.120;2024-03-07T03:11:00;26.13;;;18.97;;
11042;SDS011;5574;48.786;10.120;2024-03-07T03:13:29;21.73;;;18.20;;
11042;SDS011;5574;48.786;10.120;2024-03-07T03:15:56;21.37;;;17.87;;
11042;SDS011;5574;48.786;10.120;2024-03-07T03:18:23;22.50;;;18.80;;
11042;SDS011;5574;48.786;10.120;2024-03-07T03:20:50;23.03;;;18.30;;
11042;SDS011;5574;48.786;10.120;2024-03-07T03:23:17;22.63;;;18.40;;
11042;SDS011;5574;48.786;10.120;2024-03-07T03:25:45;22.53;;;18.63;;
11042;SDS011;5574;48.786;10.120;2024-03-07T03:28:13;21.73;;;18.17;;
11042;SDS011;5574;48.786;10.120;2024-03-07T03:30:41;23.00;;;18.00;;
11042;SDS011;5574;48.786;10.120;2024-03-07T03:33:08;22.00;;;18.13;;
11042;SDS011;5574;48.786;10.120;2024-03-07T03:35:35;22.07;;;18.00;;
11042;SDS011;5574;48.786;10.120;2024-03-07T03:38:03;22.87;;;17.57;;
11042;SDS011;5574;48.786;10.120;2024-03-07T03:40:30;22.27;;;17.87;;
11042;SDS011;5574;48.786;10.120;2024-03-07T03:42:57;22.23;;;17.87;;
11042;SDS011;5574;48.786;10.120;2024-03-07T03:45:24;21.33;;;17.27;;
11042;SDS011;5574;48.786;10.120;2024-03-07T03:47:52;21.63;;;17.40;;
11042;SDS011;5574;48.786;10.120;2024-03-07T03:50:20;20.07;;;16.70;;
11042;SDS011;5574;48.786;10.120;2024-03-07T03:52:48;23.30;;;16.13;;
11042;SDS011;5574;48.786;10.120;2024-03-07T03:55:15;23.23;;;18.20;;
11042;SDS011;5574;48.786;10.120;2024-03-07T03:57:42;20.37;;;17.90;;
11042;SDS011;5574;48.786;10.120;2024-03-07T04:00:10;21.37;;;17.30;;
11042;SDS011;5574;48.786;10.120;2024-03-07T04:02:39;19.27;;;16.03;;
11042;SDS011;5574;48.786;10.120;2024-03-07T04:05:07;23.50;;;17.67;;
11042;SDS011;5574;48.786;10.120;2024-03-07T04:07:35;19.33;;;16.80;;
11042;SDS011;5574;48.786;10.120;2024-03-07T04:10:02;19.57;;;17.07;;
11042;SDS011;5574;48.786;10.120;2024-03-07T04:12:31;21.70;;;16.90;;
11042;SDS011;5574;48.786;10.120;2024-03-07T04:14:58;22.23;;;17.30;;
11042;SDS011;5574;48.786;10.120;2024-03-07T04:17:25;21.90;;;16.63;;
11042;SDS011;5574;48.786;10.120;2024-03-07T04:19:51;20.60;;;16.47;;
11042;SDS011;5574;48.786;10.120;2024-03-07T04:22:19;17.83;;;15.93;;
11042;SDS011;5574;48.786;10.120;2024-03-07T04:24:46;19.77;;;16.17;;
11042;SDS011;5574;48.786;10.120;2024-03-07T04:27:18;21.00;;;16.87;;
11042;SDS011;5574;48.786;10.120;2024-03-07T04:29:45;19.73;;;16.37;;
11042;SDS011;5574;48.786;10.120;2024-03-07T04:32:14;19.93;;;16.70;;
11042;SDS011;5574;48.786;10.120;2024-03-07T04:34:42;19.17;;;15.77;;
11042;SDS011;5574;48.786;10.120;2024-03-07T04:37:09;19.10;;;15.17;;
11042;SDS011;5574;48.786;10.120;2024-03-07T04:39:37;18.73;;;15.20;;
11042;SDS011;5574;48.786;10.120;2024-03-07T04:42:04;18.37;;;15.60;;
11042;SDS011;5574;48.786;10.120;2024-03-07T04:44:33;19.87;;;15.93;;
11042;SDS011;5574;48.786;10.120;2024-03-07T04:47:01;17.33;;;14.77;;
11042;SDS011;5574;48.786;10.120;2024-03-07T04:49:29;17.80;;;15.30;;
11042;SDS011;5574;48.786;10.120;2024-03-07T04:51:57;18.90;;;15.63;;
11042;SDS011;5574;48.786;10.120;2024-03-07T04:54:25;18.97;;;15.50;;
11042;SDS011;5574;48.786;10.120;2024-03-07T04:56:54;17.00;;;15.00;;
11042;SDS011;5574;48.786;10.120;2024-03-07T04:59:21;18.60;;;15.53;;
11042;SDS011;5574;48.786;10.120;2024-03-07T05:01:49;20.97;;;15.63;;
11042;SDS011;5574;48.786;10.120;2024-03-07T05:04:16;20.00;;;16.03;;
11042;SDS011;5574;48.786;10.120;2024-03-07T05:06:43;20.10;;;15.73;;
11042;SDS011;5574;48.786;10.120;2024-03-07T05:09:13;18.30;;;15.60;;
11042;SDS011;5574;48.786;10.120;2024-03-07T05:11:48;18.83;;;15.37;;
11042;SDS011;5574;48.786;10.120;2024-03-07T05:14:18;21.70;;;15.27;;
11042;SDS011;5574;48.786;10.120;2024-03-07T05:16:44;19.53;;;14.83;;
11042;SDS011;5574;48.786;10.120;2024-03-07T05:19:13;17.33;;;14.40;;
11042;SDS011;5574;48.786;10.120;2024-03-07T05:21:40;16.03;;;14.33;;
11042;SDS011;5574;48.786;10.120;2024-03-07T05:24:07;18.43;;;14.27;;
11042;SDS011;5574;48.786;10.120;2024-03-07T05:26:34;19.70;;;15.80;;
11042;SDS011;5574;48.786;10.120;2024-03-07T05:29:04;17.87;;;14.37;;
11042;SDS011;5574;48.786;10.120;2024-03-07T05:31:34;18.77;;;14.63;;
11042;SDS011;5574;48.786;10.120;2024-03-07T05:34:02;16.30;;;14.27;;
11042;SDS011;5574;48.786;10.120;2024-03-07T05:36:33;18.90;;;15.33;;
11042;SDS011;5574;48.786;10.120;2024-03-07T05:39:00;19.00;;;15.20;;
11042;SDS011;5574;48.786;10.120;2024-03-07T05:41:28;18.30;;;14.67;;
11042;SDS011;5574;48.786;10.120;2024-03-07T05:43:55;18.87;;;15.67;;
11042;SDS011;5574;48.786;10.120;2024-03-07T05:46:22;19.07;;;14.97;;
11042;SDS011;5574;48.786;10.120;2024-03-07T05:48:50;17.30;;;13.53;;
11042;SDS011;5574;48.786;10.120;2024-03-07T05:51:21;17.10;;;13.67;;
11042;SDS011;5574;48.786;10.120;2024-03-07T05:53:48;17.77;;;14.40;;
11042;SDS011;5574;48.786;10.120;2024-03-07T05:56:14;16.93;;;14.03;;
11042;SDS011;5574;48.786;10.120;2024-03-07T05:58:41;16.50;;;14.23;;
11042;SDS011;5574;48.786;10.120;2024-03-07T06:01:08;16.93;;;14.40;;
11042;SDS011;5574;48.786;10.120;2024-03-07T06:03:36;20.13;;;15.63;;
11042;SDS011;5574;48.786;10.120;2024-03-07T06:06:05;18.23;;;14.70;;
11042;SDS011;5574;48.786;10.120;2024-03-07T06:08:36;19.00;;;15.40;;
11042;SDS011;5574;48.786;10.120;2024-03-07T06:11:03;17.70;;;14.60;;
11042;SDS011;5574;48.786;10.120;2024-03-07T06:13:30;20.17;;;15.57;;
11042;SDS011;5574;48.786;10.120;2024-03-07T06:15:57;19.50;;;14.70;;
11042;SDS011;5574;48.786;10.120;2024-03-07T06:18:26;19.47;;;15.03;;
11042;SDS011;5574;48.786;10.120;2024-03-07T06:20:56;17.73;;;13.63;;
11042;SDS011;5574;48.786;10.120;2024-03-07T06:23:24;21.07;;;16.27;;
11042;SDS011;5574;48.786;10.120;2024-03-07T06:25:53;19.67;;;16.13;;
11042;SDS011;5574;48.786;10.120;2024-03-07T06:28:21;20.17;;;17.20;;
11042;SDS011;5574;48.786;10.120;2024-03-07T06:30:47;19.37;;;14.67;;
11042;SDS011;5574;48.786;10.120;2024-03-07T06:33:14;19.57;;;15.57;;
11042;SDS011;5574;48.786;10.120;2024-03-07T06:35:42;22.03;;;16.97;;
11042;SDS011;5574;48.786;10.120;2024-03-07T06:38:09;19.60;;;15.50;;
11042;SDS011;5574;48.786;10.120;2024-03-07T06:40:38;18.57;;;14.87;;
11042;SDS011;5574;48.786;10.120;2024-03-07T06:43:07;19.30;;;15.03;;
11042;SDS011;5574;48.786;10.120;2024-03-07T06:45:35;16.97;;;14.03;;
11042;SDS011;5574;48.786;10.120;2024-03-07T06:48:02;18.93;;;14.20;;
11042;SDS011;5574;48.786;10.120;2024-03-07T06:50:32;17.53;;;14.60;;
11042;SDS011;5574;48.786;10.120;2024-03-07T06:52:59;17.30;;;14.13;;
11042;SDS011;5574;48.786;10.120;2024-03-07T06:55:25;16.17;;;13.53;;
11042;SDS011;5574;48.786;10.120;2024-03-07T06:57:54;18.73;;;14.70;;
11042;SDS011;5574;48.786;10.120;2024-03-07T07:00:21;15.27;;;13.50;;
11042;SDS011;5574;48.786;10.120;2024-03-07T07:02:48;17.90;;;14.40;;
11042;SDS011;5574;48.786;10.120;2024-03-07T07:05:15;17.43;;;14.30;;
11042;SDS011;5574;48.786;10.120;2024-03-07T07:07:43;16.93;;;13.60;;
11042;SDS011;5574;48.786;10.120;2024-03-07T07:10:10;19.27;;;14.13;;
11042;SDS011;5574;48.786;10.120;2024-03-07T07:12:41;17.40;;;14.57;;
11042;SDS011;5574;48.786;10.120;2024-03-07T07:15:10;17.40;;;14.53;;
11042;SDS011;5574;48.786;10.120;2024-03-07T07:17:37;19.10;;;14.47;;
11042;SDS011;5574;48.786;10.120;2024-03-07T07:20:04;19.43;;;15.07;;
11042;SDS011;5574;48.786;10.120;2024-03-07T07:22:35;18.67;;;14.53;;
11042;SDS011;5574;48.786;10.120;2024-03-07T07:25:02;18.77;;;14.67;;
11042;SDS011;5574;48.786;10.120;2024-03-07T07:27:30;18.13;;;15.20;;
11042;SDS011;5574;48.786;10.120;2024-03-07T07:29:57;18.17;;;14.60;;
11042;SDS011;5574;48.786;10.120;2024-03-07T07:32:25;20.03;;;15.87;;
11042;SDS011;5574;48.786;10.120;2024-03-07T07:34:52;18.53;;;15.87;;
11042;SDS011;5574;48.786;10.120;2024-03-07T07:37:19;20.17;;;15.53;;
11042;SDS011;5574;48.786;10.120;2024-03-07T07:39:46;20.80;;;15.87;;
11042;SDS011;5574;48.786;10.120;2024-03-07T07:42:13;17.20;;;15.03;;
11042;SDS011;5574;48.786;10.120;2024-03-07T07:44:40;19.47;;;15.07;;
11042;SDS011;5574;48.786;10.120;2024-03-07T07:47:08;18.77;;;15.13;;
11042;SDS011;5574;48.786;10.120;2024-03-07T07:49:37;19.30;;;15.23;;
11042;SDS011;5574;48.786;10.120;2024-03-07T07:52:04;19.40;;;16.03;;
11042;SDS011;5574;48.786;10.120;2024-03-07T07:54:31;20.17;;;15.30;;
11042;SDS011;5574;48.786;10.120;2024-03-07T07:56:58;18.93;;;15.53;;
11042;SDS011;5574;48.786;10.120;2024-03-07T07:59:25;18.53;;;15.20;;
11042;SDS011;5574;48.786;10.120;2024-03-07T08:01:51;21.17;;;15.93;;
11042;SDS011;5574;48.786;10.120;2024-03-07T08:04:20;20.53;;;16.37;;
11042;SDS011;5574;48.786;10.120;2024-03-07T08:06:48;20.87;;;16.07;;
11042;SDS011;5574;48.786;10.120;2024-03-07T08:09:16;20.67;;;16.30;;
11042;SDS011;5574;48.786;10.120;2024-03-07T08:11:43;20.07;;;17.00;;
11042;SDS011;5574;48.786;10.120;2024-03-07T08:14:10;19.43;;;15.73;;
11042;SDS011;5574;48.786;10.120;2024-03-07T08:16:37;18.20;;;16.07;;
11042;SDS011;5574;48.786;10.120;2024-03-07T08:19:05;19.77;;;16.43;;
11042;SDS011;5574;48.786;10.120;2024-03-07T08:21:33;19.73;;;16.23;;
11042;SDS011;5574;48.786;10.120;2024-03-07T08:24:03;21.20;;;16.67;;
11042;SDS011;5574;48.786;10.120;2024-03-07T08:26:35;20.13;;;16.43;;
11042;SDS011;5574;48.786;10.120;2024-03-07T08:29:02;18.53;;;15.60;;
11042;SDS011;5574;48.786;10.120;2024-03-07T08:31:30;20.10;;;15.90;;
11042;SDS011;5574;48.786;10.120;2024-03-07T08:33:57;19.63;;;17.37;;
11042;SDS011;5574;48.786;10.120;2024-03-07T08:36:24;20.50;;;17.20;;
11042;SDS011;5574;48.786;10.120;2024-03-07T08:38:51;19.27;;;16.40;;
11042;SDS011;5574;48.786;10.120;2024-03-07T08:41:19;20.90;;;15.90;;
11042;SDS011;5574;48.786;10.120;2024-03-07T08:43:46;22.07;;;17.60;;
11042;SDS011;5574;48.786;10.120;2024-03-07T08:46:14;21.00;;;17.47;;
11042;SDS011;5574;48.786;10.120;2024-03-07T08:48:41;20.47;;;16.23;;
11042;SDS011;5574;48.786;10.120;2024-03-07T08:51:07;22.50;;;16.30;;
11042;SDS011;5574;48.786;10.120;2024-03-07T08:53:34;22.37;;;17.50;;
11042;SDS011;5574;48.786;10.120;2024-03-07T08:56:02;20.13;;;16.37;;
11042;SDS011;5574;48.786;10.120;2024-03-07T08:58:30;20.20;;;16.70;;
11042;SDS011;5574;48.786;10.120;2024-03-07T09:00:57;22.07;;;16.90;;
11042;SDS011;5574;48.786;10.120;2024-03-07T09:03:24;21.77;;;17.07;;
11042;SDS011;5574;48.786;10.120;2024-03-07T09:05:50;21.40;;;16.80;;
11042;SDS011;5574;48.786;10.120;2024-03-07T09:08:17;20.93;;;16.73;;
11042;SDS011;5574;48.786;10.120;2024-03-07T09:10:44;20.90;;;17.57;;
11042;SDS011;5574;48.786;10.120;2024-03-07T09:13:10;22.13;;;17.80;;
11042;SDS011;5574;48.786;10.120;2024-03-07T09:15:38;45.77;;;18.60;;
11042;SDS011;5574;48.786;10.120;2024-03-07T09:18:05;22.53;;;17.03;;
11042;SDS011;5574;48.786;10.120;2024-03-07T09:20:33;23.03;;;17.17;;
11042;SDS011;5574;48.786;10.120;2024-03-07T09:23:00;24.00;;;16.37;;
11042;SDS011;5574;48.786;10.120;2024-03-07T09:25:26;20.90;;;17.00;;
11042;SDS011;5574;48.786;10.120;2024-03-07T09:27:53;21.53;;;15.93;;
11042;SDS011;5574;48.786;10.120;2024-03-07T09:30:20;26.00;;;17.43;;
11042;SDS011;5574;48.786;10.120;2024-03-07T09:32:51;25.43;;;18.10;;
11042;SDS011;5574;48.786;10.120;2024-03-07T09:35:20;24.67;;;18.10;;
11042;SDS011;5574;48.786;10.120;2024-03-07T09:37:47;26.20;;;16.90;;
11042;SDS011;5574;48.786;10.120;2024-03-07T09:40:13;18.80;;;16.17;;
11042;SDS011;5574;48.786;10.120;2024-03-07T09:42:42;21.97;;;17.07;;
11042;SDS011;5574;48.786;10.120;2024-03-07T09:45:12;22.70;;;17.50;;
11042;SDS011;5574;48.786;10.120;2024-03-07T09:47:41;22.87;;;17.00;;
11042;SDS011;5574;48.786;10.120;2024-03-07T09:50:11;26.13;;;17.20;;
11042;SDS011;5574;48.786;10.120;2024-03-07T09:52:39;20.07;;;16.83;;
11042;SDS011;5574;48.786;10.120;2024-03-07T09:55:09;21.93;;;18.17;;
11042;SDS011;5574;48.786;10.120;2024-03-07T09:57:36;24.20;;;17.23;;
11042;SDS011;5574;48.786;10.120;2024-03-07T10:00:05;28.80;;;17.93;;
11042;SDS011;5574;48.786;10.120;2024-03-07T10:02:34;28.73;;;18.47;;
11042;SDS011;5574;48.786;10.120;2024-03-07T10:05:06;31.63;;;18.40;;
11042;SDS011;5574;48.786;10.120;2024-03-07T10:07:37;20.87;;;17.73;;
11042;SDS011;5574;48.786;10.120;2024-03-07T10:10:05;21.93;;;17.20;;
11042;SDS011;5574;48.786;10.120;2024-03-07T10:12:37;23.40;;;16.57;;
11042;SDS011;5574;48.786;10.120;2024-03-07T10:15:04;28.33;;;20.20;;
11042;SDS011;5574;48.786;10.120;2024-03-07T10:17:35;23.77;;;18.13;;
11042;SDS011;5574;48.786;10.120;2024-03-07T10:20:02;19.90;;;15.53;;
11042;SDS011;5574;48.786;10.120;2024-03-07T10:22:29;24.57;;;18.00;;
11042;SDS011;5574;48.786;10.120;2024-03-07T10:24:57;21.70;;;16.97;;
11042;SDS011;5574;48.786;10.120;2024-03-07T10:27:24;21.67;;;17.70;;
11042;SDS011;5574;48.786;10.120;2024-03-07T10:29:52;21.57;;;13.73;;
11042;SDS011;5574;48.786;10.120;2024-03-07T10:32:19;20.43;;;14.33;;
11042;SDS011;5574;48.786;10.120;2024-03-07T10:34:46;17.03;;;12.57;;
11042;SDS011;5574;48.786;10.120;2024-03-07T10:37:13;18.70;;;13.87;;
11042;SDS011;5574;48.786;10.120;2024-03-07T10:39:42;25.97;;;18.87;;
11042;SDS011;5574;48.786;10.120;2024-03-07T10:42:11;26.03;;;18.40;;
11042;SDS011;5574;48.786;10.120;2024-03-07T10:44:41;23.50;;;18.20;;
11042;SDS011;5574;48.786;10.120;2024-03-07T10:47:11;23.47;;;18.23;;
11042;SDS011;5574;48.786;10.120;2024-03-07T10:49:44;26.93;;;20.20;;
11042;SDS011;5574;48.786;10.120;2024-03-07T10:52:33;28.67;;;20.33;;
11042;SDS011;5574;48.786;10.120;2024-03-07T10:55:08;24.30;;;18.93;;
11042;SDS011;5574;48.786;10.120;2024-03-07T10:57:49;23.73;;;19.23;;
11042;SDS011;5574;48.786;10.120;2024-03-07T11:00:18;41.73;;;22.37;;
11042;SDS011;5574;48.786;10.120;2024-03-07T11:03:00;28.73;;;20.53;;
11042;SDS011;5574;48.786;10.120;2024-03-07T11:05:32;24.30;;;18.80;;
11042;SDS011;5574;48.786;10.120;2024-03-07T11:07:59;50.27;;;21.70;;
11042;SDS011;5574;48.786;10.120;2024-03-07T11:10:32;23.00;;;18.17;;
11042;SDS011;5574;48.786;10.120;2024-03-07T11:13:02;31.63;;;21.13;;
11042;SDS011;5574;48.786;10.120;2024-03-07T11:15:30;26.97;;;20.23;;
11042;SDS011;5574;48.786;10.120;2024-03-07T11:17:59;28.60;;;19.17;;
11042;SDS011;5574;48.786;10.120;2024-03-07T11:20:26;39.27;;;20.77;;
11042;SDS011;5574;48.786;10.120;2024-03-07T11:22:59;27.33;;;20.63;;
11042;SDS011;5574;48.786;10.120;2024-03-07T11:25:27;29.93;;;21.53;;
11042;SDS011;5574;48.786;10.120;2024-03-07T11:27:55;46.20;;;21.40;;
11042;SDS011;5574;48.786;10.120;2024-03-07T11:30:24;35.10;;;20.40;;
11042;SDS011;5574;48.786;10.120;2024-03-07T11:32:51;35.33;;;20.93;;
11042;SDS011;5574;48.786;10.120;2024-03-07T11:35:19;37.07;;;21.60;;
11042;SDS011;5574;48.786;10.120;2024-03-07T11:37:50;28.77;;;20.67;;
11042;SDS011;5574;48.786;10.120;2024-03-07T11:43:16;25.97;;;19.87;;
11042;SDS011;5574;48.786;10.120;2024-03-07T11:45:44;30.73;;;20.47;;
11042;SDS011;5574;48.786;10.120;2024-03-07T11:48:17;25.90;;;19.83;;
11042;SDS011;5574;48.786;10.120;2024-03-07T11:50:45;28.23;;;20.23;;
11042;SDS011;5574;48.786;10.120;2024-03-07T11:53:14;29.33;;;20.40;;
11042;SDS011;5574;48.786;10.120;2024-03-07T11:55:42;30.13;;;20.77;;
11042;SDS011;5574;48.786;10.120;2024-03-07T11:58:11;27.17;;;20.67;;
11042;SDS011;5574;48.786;10.120;2024-03-07T12:00:41;30.40;;;18.37;;
11042;SDS011;5574;48.786;10.120;2024-03-07T12:03:11;28.57;;;20.57;;
11042;SDS011;5574;48.786;10.120;2024-03-07T12:05:40;29.83;;;20.23;;
11042;SDS011;5574;48.786;10.120;2024-03-07T12:08:07;30.23;;;19.30;;
11042;SDS011;5574;48.786;10.120;2024-03-07T12:10:35;29.67;;;19.97;;
11042;SDS011;5574;48.786;10.120;2024-03-07T12:13:03;25.83;;;19.50;;
11042;SDS011;5574;48.786;10.120;2024-03-07T12:15:31;29.67;;;19.73;;
11042;SDS011;5574;48.786;10.120;2024-03-07T12:17:58;32.87;;;21.17;;
11042;SDS011;5574;48.786;10.120;2024-03-07T12:20:28;26.90;;;20.30;;
11042;SDS011;5574;48.786;10.120;2024-03-07T12:22:58;23.03;;;16.70;;
11042;SDS011;5574;48.786;10.120;2024-03-07T12:25:27;30.17;;;20.43;;
11042;SDS011;5574;48.786;10.120;2024-03-07T12:28:01;29.50;;;19.33;;
11042;SDS011;5574;48.786;10.120;2024-03-07T12:30:30;25.23;;;19.37;;
11042;SDS011;5574;48.786;10.120;2024-03-07T12:32:59;72.30;;;22.70;;
11042;SDS011;5574;48.786;10.120;2024-03-07T12:35:30;24.83;;;17.90;;
11042;SDS011;5574;48.786;10.120;2024-03-07T12:37:57;25.63;;;19.33;;
11042;SDS011;5574;48.786;10.120;2024-03-07T12:40:24;28.90;;;20.53;;
11042;SDS011;5574;48.786;10.120;2024-03-07T12:42:54;26.57;;;20.27;;
11042;SDS011;5574;48.786;10.120;2024-03-07T12:45:21;28.03;;;19.70;;
11042;SDS011;5574;48.786;10.120;2024-03-07T12:47:48;26.00;;;18.20;;
11042;SDS011;5574;48.786;10.120;2024-03-07T12:50:19;24.77;;;18.20;;
11042;SDS011;5574;48.786;10.120;2024-03-07T12:52:47;23.80;;;16.17;;
11042;SDS011;5574;48.786;10.120;2024-03-07T12:55:15;23.37;;;17.93;;
11042;SDS011;5574;48.786;10.120;2024-03-07T12:57:46;29.73;;;18.00;;
11042;SDS011;5574;48.786;10.120;2024-03-07T13:00:15;25.77;;;18.93;;
11042;SDS011;5574;48.786;10.120;2024-03-07T13:02:45;24.87;;;18.23;;
11042;SDS011;5574;48.786;10.120;2024-03-07T13:05:13;26.67;;;18.33;;
11042;SDS011;5574;48.786;10.120;2024-03-07T13:07:47;29.23;;;19.77;;
11042;SDS011;5574;48.786;10.120;2024-03-07T13:10:14;28.60;;;15.73;;
11042;SDS011;5574;48.786;10.120;2024-03-07T13:12:43;29.57;;;16.10;;
11042;SDS011;5574;48.786;10.120;2024-03-07T13:15:11;20.73;;;15.97;;
11042;SDS011;5574;48.786;10.120;2024-03-07T13:17:38;26.73;;;16.27;;
11042;SDS011;5574;48.786;10.120;2024-03-07T13:20:05;19.23;;;15.33;;
11042;SDS011;5574;48.786;10.120;2024-03-07T13:22:38;19.97;;;16.20;;
11042;SDS011;5574;48.786;10.120;2024-03-07T13:25:08;24.70;;;15.80;;
11042;SDS011;5574;48.786;10.120;2024-03-07T13:27:41;25.27;;;16.57;;
11042;SDS011;5574;48.786;10.120;2024-03-07T13:30:10;20.90;;;15.63;;
11042;SDS011;5574;48.786;10.120;2024-03-07T13:32:49;29.73;;;17.37;;
11042;SDS011;5574;48.786;10.120;2024-03-07T13:35:17;36.93;;;16.10;;
11042;SDS011;5574;48.786;10.120;2024-03-07T13:37:45;18.73;;;14.70;;
11042;SDS011;5574;48.786;10.120;2024-03-07T13:40:14;20.87;;;16.00;;
11042;SDS011;5574;48.786;10.120;2024-03-07T13:42:53;23.10;;;16.37;;
11042;SDS011;5574;48.786;10.120;2024-03-07T13:45:21;25.63;;;16.23;;
11042;SDS011;5574;48.786;10.120;2024-03-07T13:47:48;19.20;;;16.17;;
11042;SDS011;5574;48.786;10.120;2024-03-07T13:50:17;27.37;;;16.77;;
11042;SDS011;5574;48.786;10.120;2024-03-07T13:52:45;55.10;;;19.57;;
11042;SDS011;5574;48.786;10.120;2024-03-07T13:55:32;19.00;;;15.60;;
11042;SDS011;5574;48.786;10.120;2024-03-07T13:58:06;53.10;;;18.60;;
11042;SDS011;5574;48.786;10.120;2024-03-07T14:00:41;62.00;;;18.57;;
11042;SDS011;5574;48.786;10.120;2024-03-07T14:03:29;49.50;;;18.07;;
11042;SDS011;5574;48.786;10.120;2024-03-07T14:06:20;21.80;;;14.33;;
11042;SDS011;5574;48.786;10.120;2024-03-07T14:09:12;18.03;;;14.97;;
11042;SDS011;5574;48.786;10.120;2024-03-07T14:21:43;24.37;;;14.30;;
11042;SDS011;5574;48.786;10.120;2024-03-07T14:27:33;25.20;;;14.67;;
11042;SDS011;5574;48.786;10.120;2024-03-07T14:30:24;20.13;;;14.93;;
11042;SDS011;5574;48.786;10.120;2024-03-07T14:33:05;17.33;;;14.47;;
11042;SDS011;5574;48.786;10.120;2024-03-07T14:35:35;27.50;;;14.97;;
11042;SDS011;5574;48.786;10.120;2024-03-07T14:38:25;22.03;;;14.43;;
11042;SDS011;5574;48.786;10.120;2024-03-07T14:40:53;28.40;;;14.93;;
11042;SDS011;5574;48.786;10.120;2024-03-07T14:43:22;63.17;;;17.90;;
11042;SDS011;5574;48.786;10.120;2024-03-07T14:45:49;22.53;;;13.37;;